sensor_id;sensor_type;location;lat;lon;timestamp;P1;durP1;ratioP1;P2;durP2;ratioP2
12852;SDS011;6495;51.808;7.478;2023-07-29T00:02:24;5.78;;;1.60;;
12852;SDS011;6495;51.808;7.478;2023-07-29T00:04:54;2.72;;;1.42;;
12852;SDS011;6495;51.808;7.478;2023-07-29T00:07:22;2.38;;;1.58;;
12852;SDS011;6495;51.808;7.478;2023-07-29T00:09:50;2.00;;;1.70;;
12852;SDS011;6495;51.808;7.478;2023-07-29T00:12:18;1.70;;;1.60;;
12852;SDS011;6495;51.808;7.478;2023-07-29T00:14:47;1.80;;;1.52;;
12852;SDS011;6495;51.808;7.478;2023-07-29T00:17:15;1.80;;;1.65;;
12852;SDS011;6495;51.808;7.478;2023-07-29T00:19:44;1.60;;;1.50;;
12852;SDS011;6495;51.808;7.478;2023-07-29T00:22:12;2.33;;;1.98;;
12852;SDS011;6495;51.808;7.478;2023-07-29T00:24:40;2.38;;;2.03;;
12852;SDS011;6495;51.808;7.478;2023-07-29T00:27:08;1.60;;;1.50;;
12852;SDS011;6495;51.808;7.478;2023-07-29T00:29:36;2.25;;;1.80;;
12852;SDS011;6495;51.808;7.478;2023-07-29T00:32:06;1.70;;;1.60;;
12852;SDS011;6495;51.808;7.478;2023-07-29T00:34:34;1.88;;;1.63;;
12852;SDS011;6495;51.808;7.478;2023-07-29T00:37:02;3.38;;;2.10;;
12852;SDS011;6495;51.808;7.478;2023-07-29T00:39:32;4.07;;;1.92;;
12852;SDS011;6495;51.808;7.478;2023-07-29T00:42:01;5.40;;;1.80;;
12852;SDS011;6495;51.808;7.478;2023-07-29T00:44:29;2.03;;;1.67;;
12852;SDS011;6495;51.808;7.478;2023-07-29T00:47:00;2.40;;;1.88;;
12852;SDS011;6495;51.808;7.478;2023-07-29T00:49:31;2.20;;;1.85;;
12852;SDS011;6495;51.808;7.478;2023-07-29T00:52:01;1.90;;;1.70;;
12852;SDS011;6495;51.808;7.478;2023-07-29T00:54:30;3.92;;;1.80;;
12852;SDS011;6495;51.808;7.478;2023-07-29T00:56:58;3.67;;;1.92;;
12852;SDS011;6495;51.808;7.478;2023-07-29T00:59:26;3.55;;;2.00;;
12852;SDS011;6495;51.808;7.478;2023-07-29T01:01:57;2.17;;;1.80;;
12852;SDS011;6495;51.808;7.478;2023-07-29T01:04:25;1.83;;;1.60;;
12852;SDS011;6495;51.808;7.478;2023-07-29T01:06:57;2.72;;;1.95;;
12852;SDS011;6495;51.808;7.478;2023-07-29T01:09:39;2.00;;;1.80;;
12852;SDS011;6495;51.808;7.478;2023-07-29T01:12:19;1.80;;;1.70;;
12852;SDS011;6495;51.808;7.478;2023-07-29T01:14:55;3.15;;;1.90;;
12852;SDS011;6495;51.808;7.478;2023-07-29T01:17:36;2.10;;;1.77;;
12852;SDS011;6495;51.808;7.478;2023-07-29T01:20:11;2.35;;;1.80;;
12852;SDS011;6495;51.808;7.478;2023-07-29T01:22:44;2.67;;;2.13;;
12852;SDS011;6495;51.808;7.478;2023-07-29T01:25:15;1.73;;;1.63;;
12852;SDS011;6495;51.808;7.478;2023-07-29T01:27:44;4.35;;;1.90;;
12852;SDS011;6495;51.808;7.478;2023-07-29T01:30:18;4.47;;;2.05;;
12852;SDS011;6495;51.808;7.478;2023-07-29T01:32:49;2.20;;;1.83;;
12852;SDS011;6495;51.808;7.478;2023-07-29T01:35:26;2.45;;;2.05;;
12852;SDS011;6495;51.808;7.478;2023-07-29T01:38:04;2.50;;;1.85;;
12852;SDS011;6495;51.808;7.478;2023-07-29T01:40:42;1.90;;;1.80;;
12852;SDS011;6495;51.808;7.478;2023-07-29T01:43:11;2.20;;;1.70;;
12852;SDS011;6495;51.808;7.478;2023-07-29T01:45:40;3.30;;;2.10;;
12852;SDS011;6495;51.808;7.478;2023-07-29T01:48:08;2.55;;;1.88;;
12852;SDS011;6495;51.808;7.478;2023-07-29T01:50:36;2.17;;;1.90;;
12852;SDS011;6495;51.808;7.478;2023-07-29T01:53:05;3.28;;;2.13;;
12852;SDS011;6495;51.808;7.478;2023-07-29T01:55:33;2.58;;;2.28;;
12852;SDS011;6495;51.808;7.478;2023-07-29T01:58:03;2.55;;;2.17;;
12852;SDS011;6495;51.808;7.478;2023-07-29T02:00:34;3.00;;;2.45;;
12852;SDS011;6495;51.808;7.478;2023-07-29T02:03:02;3.15;;;2.45;;
12852;SDS011;6495;51.808;7.478;2023-07-29T02:05:30;3.25;;;2.30;;
12852;SDS011;6495;51.808;7.478;2023-07-29T02:07:59;3.95;;;2.60;;
12852;SDS011;6495;51.808;7.478;2023-07-29T02:10:27;3.60;;;2.40;;
12852;SDS011;6495;51.808;7.478;2023-07-29T02:12:55;3.28;;;2.80;;
12852;SDS011;6495;51.808;7.478;2023-07-29T02:15:24;3.67;;;2.80;;
12852;SDS011;6495;51.808;7.478;2023-07-29T02:17:52;2.95;;;2.63;;
12852;SDS011;6495;51.808;7.478;2023-07-29T02:20:21;2.55;;;2.20;;
12852;SDS011;6495;51.808;7.478;2023-07-29T02:22:50;2.88;;;2.67;;
12852;SDS011;6495;51.808;7.478;2023-07-29T02:25:18;4.70;;;2.47;;
12852;SDS011;6495;51.808;7.478;2023-07-29T02:27:46;4.10;;;2.60;;
12852;SDS011;6495;51.808;7.478;2023-07-29T02:30:14;3.53;;;2.20;;
12852;SDS011;6495;51.808;7.478;2023-07-29T02:32:44;2.65;;;2.40;;
12852;SDS011;6495;51.808;7.478;2023-07-29T02:35:12;2.80;;;2.50;;
12852;SDS011;6495;51.808;7.478;2023-07-29T02:37:41;3.35;;;2.53;;
12852;SDS011;6495;51.808;7.478;2023-07-29T02:40:09;3.75;;;2.53;;
12852;SDS011;6495;51.808;7.478;2023-07-29T02:42:38;2.92;;;2.28;;
12852;SDS011;6495;51.808;7.478;2023-07-29T02:45:07;3.03;;;2.58;;
12852;SDS011;6495;51.808;7.478;2023-07-29T02:47:37;3.50;;;2.60;;
12852;SDS011;6495;51.808;7.478;2023-07-29T02:50:07;3.38;;;2.90;;
12852;SDS011;6495;51.808;7.478;2023-07-29T02:52:36;3.63;;;2.90;;
12852;SDS011;6495;51.808;7.478;2023-07-29T02:55:05;2.65;;;2.45;;
12852;SDS011;6495;51.808;7.478;2023-07-29T02:57:34;5.80;;;2.92;;
12852;SDS011;6495;51.808;7.478;2023-07-29T03:00:04;3.90;;;2.95;;
12852;SDS011;6495;51.808;7.478;2023-07-29T03:02:34;3.10;;;2.80;;
12852;SDS011;6495;51.808;7.478;2023-07-29T03:05:02;2.90;;;2.67;;
12852;SDS011;6495;51.808;7.478;2023-07-29T03:07:33;3.72;;;2.83;;
12852;SDS011;6495;51.808;7.478;2023-07-29T03:10:01;3.03;;;2.40;;
12852;SDS011;6495;51.808;7.478;2023-07-29T03:12:30;4.90;;;3.25;;
12852;SDS011;6495;51.808;7.478;2023-07-29T03:14:58;3.78;;;3.20;;
12852;SDS011;6495;51.808;7.478;2023-07-29T03:17:27;3.80;;;3.33;;
12852;SDS011;6495;51.808;7.478;2023-07-29T03:19:55;3.30;;;3.00;;
12852;SDS011;6495;51.808;7.478;2023-07-29T03:22:23;3.78;;;2.88;;
12852;SDS011;6495;51.808;7.478;2023-07-29T03:24:53;3.58;;;3.28;;
12852;SDS011;6495;51.808;7.478;2023-07-29T03:27:21;4.93;;;3.05;;
12852;SDS011;6495;51.808;7.478;2023-07-29T03:29:49;4.50;;;2.75;;
12852;SDS011;6495;51.808;7.478;2023-07-29T03:32:17;3.17;;;2.92;;
12852;SDS011;6495;51.808;7.478;2023-07-29T03:34:45;3.47;;;2.97;;
12852;SDS011;6495;51.808;7.478;2023-07-29T03:37:13;4.07;;;2.92;;
12852;SDS011;6495;51.808;7.478;2023-07-29T03:39:42;5.85;;;3.10;;
12852;SDS011;6495;51.808;7.478;2023-07-29T03:42:12;4.57;;;3.22;;
12852;SDS011;6495;51.808;7.478;2023-07-29T03:44:40;3.88;;;3.28;;
12852;SDS011;6495;51.808;7.478;2023-07-29T03:47:08;3.55;;;3.20;;
12852;SDS011;6495;51.808;7.478;2023-07-29T03:49:39;3.40;;;3.10;;
12852;SDS011;6495;51.808;7.478;2023-07-29T03:52:07;3.70;;;3.30;;
12852;SDS011;6495;51.808;7.478;2023-07-29T03:54:35;3.22;;;2.92;;
12852;SDS011;6495;51.808;7.478;2023-07-29T03:57:03;6.05;;;3.47;;
12852;SDS011;6495;51.808;7.478;2023-07-29T03:59:34;3.55;;;2.75;;
12852;SDS011;6495;51.808;7.478;2023-07-29T04:02:02;3.45;;;3.15;;
12852;SDS011;6495;51.808;7.478;2023-07-29T04:04:31;4.07;;;3.15;;
12852;SDS011;6495;51.808;7.478;2023-07-29T04:06:59;3.33;;;3.03;;
12852;SDS011;6495;51.808;7.478;2023-07-29T04:09:28;3.50;;;2.95;;
12852;SDS011;6495;51.808;7.478;2023-07-29T04:11:56;3.75;;;2.78;;
12852;SDS011;6495;51.808;7.478;2023-07-29T04:14:24;3.45;;;3.15;;
12852;SDS011;6495;51.808;7.478;2023-07-29T04:16:53;3.08;;;2.55;;
12852;SDS011;6495;51.808;7.478;2023-07-29T04:19:22;3.42;;;2.75;;
12852;SDS011;6495;51.808;7.478;2023-07-29T04:21:50;4.85;;;3.40;;
12852;SDS011;6495;51.808;7.478;2023-07-29T04:24:18;3.95;;;3.13;;
12852;SDS011;6495;51.808;7.478;2023-07-29T04:26:46;4.97;;;3.10;;
12852;SDS011;6495;51.808;7.478;2023-07-29T04:29:14;3.10;;;2.78;;
12852;SDS011;6495;51.808;7.478;2023-07-29T04:31:42;5.22;;;2.70;;
12852;SDS011;6495;51.808;7.478;2023-07-29T04:34:12;3.22;;;2.75;;
12852;SDS011;6495;51.808;7.478;2023-07-29T04:36:40;2.90;;;2.60;;
12852;SDS011;6495;51.808;7.478;2023-07-29T04:39:08;3.95;;;2.75;;
12852;SDS011;6495;51.808;7.478;2023-07-29T04:41:36;3.10;;;2.70;;
12852;SDS011;6495;51.808;7.478;2023-07-29T04:44:05;3.35;;;3.03;;
12852;SDS011;6495;51.808;7.478;2023-07-29T04:46:33;4.28;;;3.05;;
12852;SDS011;6495;51.808;7.478;2023-07-29T04:49:01;3.88;;;3.03;;
12852;SDS011;6495;51.808;7.478;2023-07-29T04:51:31;2.85;;;2.63;;
12852;SDS011;6495;51.808;7.478;2023-07-29T04:53:59;2.97;;;2.67;;
12852;SDS011;6495;51.808;7.478;2023-07-29T04:56:28;3.05;;;2.53;;
12852;SDS011;6495;51.808;7.478;2023-07-29T04:58:56;4.38;;;2.95;;
12852;SDS011;6495;51.808;7.478;2023-07-29T05:01:24;3.92;;;3.05;;
12852;SDS011;6495;51.808;7.478;2023-07-29T05:03:52;6.18;;;3.20;;
12852;SDS011;6495;51.808;7.478;2023-07-29T05:06:20;3.70;;;3.13;;
12852;SDS011;6495;51.808;7.478;2023-07-29T05:08:50;3.42;;;2.90;;
12852;SDS011;6495;51.808;7.478;2023-07-29T05:11:18;3.95;;;3.00;;
12852;SDS011;6495;51.808;7.478;2023-07-29T05:13:46;4.57;;;3.17;;
12852;SDS011;6495;51.808;7.478;2023-07-29T05:16:15;4.03;;;3.15;;
12852;SDS011;6495;51.808;7.478;2023-07-29T05:18:43;8.32;;;4.00;;
12852;SDS011;6495;51.808;7.478;2023-07-29T05:21:11;6.15;;;3.67;;
12852;SDS011;6495;51.808;7.478;2023-07-29T05:23:40;5.95;;;3.78;;
12852;SDS011;6495;51.808;7.478;2023-07-29T05:26:10;5.35;;;4.10;;
12852;SDS011;6495;51.808;7.478;2023-07-29T05:28:38;4.25;;;3.50;;
12852;SDS011;6495;51.808;7.478;2023-07-29T05:31:06;5.45;;;3.80;;
12852;SDS011;6495;51.808;7.478;2023-07-29T05:33:34;6.38;;;3.85;;
12852;SDS011;6495;51.808;7.478;2023-07-29T05:36:05;4.78;;;3.95;;
12852;SDS011;6495;51.808;7.478;2023-07-29T05:38:33;4.05;;;3.47;;
12852;SDS011;6495;51.808;7.478;2023-07-29T05:41:02;4.20;;;3.80;;
12852;SDS011;6495;51.808;7.478;2023-07-29T05:43:31;5.85;;;4.13;;
12852;SDS011;6495;51.808;7.478;2023-07-29T05:45:59;5.03;;;3.83;;
12852;SDS011;6495;51.808;7.478;2023-07-29T05:48:27;4.82;;;3.60;;
12852;SDS011;6495;51.808;7.478;2023-07-29T05:50:56;4.07;;;3.47;;
12852;SDS011;6495;51.808;7.478;2023-07-29T05:53:24;5.57;;;3.83;;
12852;SDS011;6495;51.808;7.478;2023-07-29T05:55:52;5.53;;;4.10;;
12852;SDS011;6495;51.808;7.478;2023-07-29T05:58:20;5.35;;;4.35;;
12852;SDS011;6495;51.808;7.478;2023-07-29T06:00:50;6.22;;;4.25;;
12852;SDS011;6495;51.808;7.478;2023-07-29T06:03:22;9.57;;;4.85;;
12852;SDS011;6495;51.808;7.478;2023-07-29T06:05:51;5.65;;;4.30;;
12852;SDS011;6495;51.808;7.478;2023-07-29T06:08:20;7.40;;;4.78;;
12852;SDS011;6495;51.808;7.478;2023-07-29T06:10:48;7.05;;;5.13;;
12852;SDS011;6495;51.808;7.478;2023-07-29T06:13:16;5.82;;;5.00;;
12852;SDS011;6495;51.808;7.478;2023-07-29T06:15:45;9.02;;;5.45;;
12852;SDS011;6495;51.808;7.478;2023-07-29T06:18:14;8.73;;;5.30;;
12852;SDS011;6495;51.808;7.478;2023-07-29T06:20:42;6.80;;;5.15;;
12852;SDS011;6495;51.808;7.478;2023-07-29T06:23:11;7.03;;;5.05;;
12852;SDS011;6495;51.808;7.478;2023-07-29T06:25:39;5.82;;;4.75;;
12852;SDS011;6495;51.808;7.478;2023-07-29T06:28:08;5.70;;;4.90;;
12852;SDS011;6495;51.808;7.478;2023-07-29T06:30:37;5.88;;;5.03;;
12852;SDS011;6495;51.808;7.478;2023-07-29T06:33:05;5.78;;;4.15;;
12852;SDS011;6495;51.808;7.478;2023-07-29T06:35:34;4.22;;;3.83;;
12852;SDS011;6495;51.808;7.478;2023-07-29T06:38:02;5.32;;;4.47;;
12852;SDS011;6495;51.808;7.478;2023-07-29T06:40:31;5.07;;;4.03;;
12852;SDS011;6495;51.808;7.478;2023-07-29T06:42:59;4.13;;;3.72;;
12852;SDS011;6495;51.808;7.478;2023-07-29T06:45:27;3.50;;;3.15;;
12852;SDS011;6495;51.808;7.478;2023-07-29T06:47:55;4.82;;;3.45;;
12852;SDS011;6495;51.808;7.478;2023-07-29T06:50:23;6.93;;;2.92;;
12852;SDS011;6495;51.808;7.478;2023-07-29T06:52:53;5.70;;;3.40;;
12852;SDS011;6495;51.808;7.478;2023-07-29T06:55:21;3.00;;;2.50;;
12852;SDS011;6495;51.808;7.478;2023-07-29T06:57:49;5.18;;;2.85;;
12852;SDS011;6495;51.808;7.478;2023-07-29T07:00:17;3.28;;;2.47;;
12852;SDS011;6495;51.808;7.478;2023-07-29T07:02:45;3.85;;;2.65;;
12852;SDS011;6495;51.808;7.478;2023-07-29T07:05:14;3.28;;;2.72;;
12852;SDS011;6495;51.808;7.478;2023-07-29T07:07:42;2.90;;;2.50;;
12852;SDS011;6495;51.808;7.478;2023-07-29T07:10:12;3.65;;;2.70;;
12852;SDS011;6495;51.808;7.478;2023-07-29T07:12:41;2.70;;;2.45;;
12852;SDS011;6495;51.808;7.478;2023-07-29T07:15:09;5.65;;;2.40;;
12852;SDS011;6495;51.808;7.478;2023-07-29T07:17:37;2.50;;;2.30;;
12852;SDS011;6495;51.808;7.478;2023-07-29T07:20:06;3.10;;;2.80;;
12852;SDS011;6495;51.808;7.478;2023-07-29T07:22:35;3.00;;;2.30;;
12852;SDS011;6495;51.808;7.478;2023-07-29T07:25:03;5.45;;;2.85;;
12852;SDS011;6495;51.808;7.478;2023-07-29T07:27:35;2.78;;;2.22;;
12852;SDS011;6495;51.808;7.478;2023-07-29T07:30:05;3.97;;;2.50;;
12852;SDS011;6495;51.808;7.478;2023-07-29T07:32:34;2.30;;;2.10;;
12852;SDS011;6495;51.808;7.478;2023-07-29T07:35:02;2.42;;;1.90;;
12852;SDS011;6495;51.808;7.478;2023-07-29T07:37:31;3.95;;;1.80;;
12852;SDS011;6495;51.808;7.478;2023-07-29T07:39:59;2.60;;;1.65;;
12852;SDS011;6495;51.808;7.478;2023-07-29T07:42:27;2.42;;;1.70;;
12852;SDS011;6495;51.808;7.478;2023-07-29T07:44:57;2.00;;;1.60;;
12852;SDS011;6495;51.808;7.478;2023-07-29T07:47:25;2.58;;;1.50;;
12852;SDS011;6495;51.808;7.478;2023-07-29T07:49:53;3.47;;;1.88;;
12852;SDS011;6495;51.808;7.478;2023-07-29T07:52:21;1.70;;;1.50;;
12852;SDS011;6495;51.808;7.478;2023-07-29T07:54:51;1.90;;;1.52;;
12852;SDS011;6495;51.808;7.478;2023-07-29T07:57:20;1.88;;;1.70;;
12852;SDS011;6495;51.808;7.478;2023-07-29T07:59:49;3.75;;;1.65;;
12852;SDS011;6495;51.808;7.478;2023-07-29T08:02:20;2.45;;;1.70;;
12852;SDS011;6495;51.808;7.478;2023-07-29T08:04:48;1.92;;;1.60;;
12852;SDS011;6495;51.808;7.478;2023-07-29T08:07:16;1.20;;;1.10;;
12852;SDS011;6495;51.808;7.478;2023-07-29T08:09:45;1.90;;;1.27;;
12852;SDS011;6495;51.808;7.478;2023-07-29T08:12:13;1.80;;;1.70;;
12852;SDS011;6495;51.808;7.478;2023-07-29T08:14:45;10.13;;;2.58;;
12852;SDS011;6495;51.808;7.478;2023-07-29T08:17:15;1.17;;;1.08;;
12852;SDS011;6495;51.808;7.478;2023-07-29T08:19:44;1.40;;;1.23;;
12852;SDS011;6495;51.808;7.478;2023-07-29T08:22:12;2.08;;;1.35;;
12852;SDS011;6495;51.808;7.478;2023-07-29T08:24:40;1.10;;;0.90;;
12852;SDS011;6495;51.808;7.478;2023-07-29T08:27:08;1.58;;;1.20;;
12852;SDS011;6495;51.808;7.478;2023-07-29T08:29:36;2.03;;;1.40;;
12852;SDS011;6495;51.808;7.478;2023-07-29T08:32:05;1.40;;;1.30;;
12852;SDS011;6495;51.808;7.478;2023-07-29T08:34:33;2.08;;;1.25;;
12852;SDS011;6495;51.808;7.478;2023-07-29T08:37:03;2.78;;;1.33;;
12852;SDS011;6495;51.808;7.478;2023-07-29T08:39:31;1.10;;;0.88;;
12852;SDS011;6495;51.808;7.478;2023-07-29T08:42:01;1.45;;;1.08;;
12852;SDS011;6495;51.808;7.478;2023-07-29T08:44:35;1.40;;;1.00;;
12852;SDS011;6495;51.808;7.478;2023-07-29T08:47:07;1.17;;;1.00;;
12852;SDS011;6495;51.808;7.478;2023-07-29T08:49:35;2.17;;;0.95;;
12852;SDS011;6495;51.808;7.478;2023-07-29T08:52:07;1.20;;;1.10;;
12852;SDS011;6495;51.808;7.478;2023-07-29T08:54:37;1.77;;;1.10;;
12852;SDS011;6495;51.808;7.478;2023-07-29T08:57:06;0.90;;;0.90;;
12852;SDS011;6495;51.808;7.478;2023-07-29T08:59:34;1.40;;;1.10;;
12852;SDS011;6495;51.808;7.478;2023-07-29T09:02:03;1.20;;;0.90;;
12852;SDS011;6495;51.808;7.478;2023-07-29T09:04:31;1.73;;;1.02;;
12852;SDS011;6495;51.808;7.478;2023-07-29T09:06:59;1.25;;;1.00;;
12852;SDS011;6495;51.808;7.478;2023-07-29T09:09:30;1.50;;;1.20;;
12852;SDS011;6495;51.808;7.478;2023-07-29T09:11:58;1.23;;;1.02;;
12852;SDS011;6495;51.808;7.478;2023-07-29T09:14:26;1.33;;;1.00;;
12852;SDS011;6495;51.808;7.478;2023-07-29T09:16:55;1.20;;;1.10;;
12852;SDS011;6495;51.808;7.478;2023-07-29T09:19:24;1.80;;;1.30;;
12852;SDS011;6495;51.808;7.478;2023-07-29T09:21:53;1.00;;;0.90;;
12852;SDS011;6495;51.808;7.478;2023-07-29T09:24:22;0.80;;;0.80;;
12852;SDS011;6495;51.808;7.478;2023-07-29T09:26:51;1.40;;;1.00;;
12852;SDS011;6495;51.808;7.478;2023-07-29T09:29:22;1.08;;;0.98;;
12852;SDS011;6495;51.808;7.478;2023-07-29T09:31:51;0.90;;;0.90;;
12852;SDS011;6495;51.808;7.478;2023-07-29T09:34:19;1.65;;;1.10;;
12852;SDS011;6495;51.808;7.478;2023-07-29T09:36:49;1.10;;;1.00;;
12852;SDS011;6495;51.808;7.478;2023-07-29T09:39:18;1.15;;;1.05;;
12852;SDS011;6495;51.808;7.478;2023-07-29T09:41:52;0.95;;;0.85;;
12852;SDS011;6495;51.808;7.478;2023-07-29T09:44:20;0.80;;;0.80;;
12852;SDS011;6495;51.808;7.478;2023-07-29T09:46:49;2.38;;;1.00;;
12852;SDS011;6495;51.808;7.478;2023-07-29T09:49:17;0.98;;;0.95;;
12852;SDS011;6495;51.808;7.478;2023-07-29T09:51:46;1.05;;;0.95;;
12852;SDS011;6495;51.808;7.478;2023-07-29T09:54:14;0.77;;;0.77;;
12852;SDS011;6495;51.808;7.478;2023-07-29T09:56:44;1.00;;;0.90;;
12852;SDS011;6495;51.808;7.478;2023-07-29T09:59:14;1.10;;;1.00;;
12852;SDS011;6495;51.808;7.478;2023-07-29T10:01:46;2.85;;;1.08;;
12852;SDS011;6495;51.808;7.478;2023-07-29T10:04:15;1.17;;;1.02;;
12852;SDS011;6495;51.808;7.478;2023-07-29T10:06:44;1.13;;;1.00;;
12852;SDS011;6495;51.808;7.478;2023-07-29T10:09:14;0.65;;;0.65;;
12852;SDS011;6495;51.808;7.478;2023-07-29T10:11:43;1.25;;;1.02;;
12852;SDS011;6495;51.808;7.478;2023-07-29T10:14:12;1.15;;;0.85;;
12852;SDS011;6495;51.808;7.478;2023-07-29T10:16:43;1.35;;;1.17;;
12852;SDS011;6495;51.808;7.478;2023-07-29T10:19:13;0.80;;;0.80;;
12852;SDS011;6495;51.808;7.478;2023-07-29T10:21:44;0.95;;;0.88;;
12852;SDS011;6495;51.808;7.478;2023-07-29T10:24:18;1.10;;;1.00;;
12852;SDS011;6495;51.808;7.478;2023-07-29T10:26:55;1.00;;;0.90;;
12852;SDS011;6495;51.808;7.478;2023-07-29T10:29:29;1.00;;;0.95;;
12852;SDS011;6495;51.808;7.478;2023-07-29T10:32:01;0.95;;;0.88;;
12852;SDS011;6495;51.808;7.478;2023-07-29T10:34:31;1.02;;;0.93;;
12852;SDS011;6495;51.808;7.478;2023-07-29T10:37:02;2.22;;;1.02;;
12852;SDS011;6495;51.808;7.478;2023-07-29T10:39:35;0.80;;;0.80;;
12852;SDS011;6495;51.808;7.478;2023-07-29T10:42:06;0.90;;;0.90;;
12852;SDS011;6495;51.808;7.478;2023-07-29T10:44:49;0.80;;;0.80;;
12852;SDS011;6495;51.808;7.478;2023-07-29T10:47:20;7.63;;;1.20;;
12852;SDS011;6495;51.808;7.478;2023-07-29T10:49:52;1.13;;;1.02;;
12852;SDS011;6495;51.808;7.478;2023-07-29T10:52:39;0.77;;;0.77;;
12852;SDS011;6495;51.808;7.478;2023-07-29T10:55:25;1.30;;;1.20;;
12852;SDS011;6495;51.808;7.478;2023-07-29T10:58:06;1.27;;;1.17;;
12852;SDS011;6495;51.808;7.478;2023-07-29T11:00:40;1.13;;;1.02;;
12852;SDS011;6495;51.808;7.478;2023-07-29T11:03:11;1.15;;;1.00;;
12852;SDS011;6495;51.808;7.478;2023-07-29T11:05:42;1.27;;;1.17;;
12852;SDS011;6495;51.808;7.478;2023-07-29T11:08:19;1.30;;;0.88;;
12852;SDS011;6495;51.808;7.478;2023-07-29T11:11:03;1.20;;;1.10;;
12852;SDS011;6495;51.808;7.478;2023-07-29T11:13:34;1.40;;;1.13;;
12852;SDS011;6495;51.808;7.478;2023-07-29T11:16:06;3.58;;;1.15;;
12852;SDS011;6495;51.808;7.478;2023-07-29T11:18:37;0.95;;;0.95;;
12852;SDS011;6495;51.808;7.478;2023-07-29T11:21:09;1.58;;;1.10;;
12852;SDS011;6495;51.808;7.478;2023-07-29T11:23:37;1.75;;;1.20;;
12852;SDS011;6495;51.808;7.478;2023-07-29T11:26:05;2.17;;;1.30;;
12852;SDS011;6495;51.808;7.478;2023-07-29T11:28:37;1.20;;;1.10;;
12852;SDS011;6495;51.808;7.478;2023-07-29T11:31:09;1.17;;;1.08;;
12852;SDS011;6495;51.808;7.478;2023-07-29T11:33:38;1.23;;;1.13;;
12852;SDS011;6495;51.808;7.478;2023-07-29T11:36:16;1.40;;;1.13;;
12852;SDS011;6495;51.808;7.478;2023-07-29T11:38:46;1.30;;;1.20;;
12852;SDS011;6495;51.808;7.478;2023-07-29T11:41:18;2.00;;;1.20;;
12852;SDS011;6495;51.808;7.478;2023-07-29T11:43:48;1.00;;;1.00;;
12852;SDS011;6495;51.808;7.478;2023-07-29T11:46:21;3.20;;;1.27;;
12852;SDS011;6495;51.808;7.478;2023-07-29T11:48:50;1.50;;;1.40;;
12852;SDS011;6495;51.808;7.478;2023-07-29T11:51:21;1.20;;;1.10;;
12852;SDS011;6495;51.808;7.478;2023-07-29T11:53:49;1.30;;;1.20;;
12852;SDS011;6495;51.808;7.478;2023-07-29T11:56:19;2.63;;;1.15;;
12852;SDS011;6495;51.808;7.478;2023-07-29T11:58:47;1.00;;;0.90;;
12852;SDS011;6495;51.808;7.478;2023-07-29T12:01:17;1.67;;;1.00;;
12852;SDS011;6495;51.808;7.478;2023-07-29T12:03:46;1.30;;;1.20;;
12852;SDS011;6495;51.808;7.478;2023-07-29T12:06:15;1.98;;;1.20;;
12852;SDS011;6495;51.808;7.478;2023-07-29T12:08:44;2.03;;;1.10;;
12852;SDS011;6495;51.808;7.478;2023-07-29T12:11:13;1.52;;;1.40;;
12852;SDS011;6495;51.808;7.478;2023-07-29T12:13:42;1.02;;;0.98;;
12852;SDS011;6495;51.808;7.478;2023-07-29T12:16:15;1.48;;;1.20;;
12852;SDS011;6495;51.808;7.478;2023-07-29T12:18:44;1.15;;;1.05;;
12852;SDS011;6495;51.808;7.478;2023-07-29T12:21:15;1.45;;;1.20;;
12852;SDS011;6495;51.808;7.478;2023-07-29T12:23:44;1.38;;;1.10;;
12852;SDS011;6495;51.808;7.478;2023-07-29T12:26:12;1.40;;;1.02;;
12852;SDS011;6495;51.808;7.478;2023-07-29T12:28:44;1.48;;;1.20;;
12852;SDS011;6495;51.808;7.478;2023-07-29T12:31:14;1.40;;;1.30;;
12852;SDS011;6495;51.808;7.478;2023-07-29T12:33:42;1.60;;;1.23;;
12852;SDS011;6495;51.808;7.478;2023-07-29T12:36:11;1.25;;;1.15;;
12852;SDS011;6495;51.808;7.478;2023-07-29T12:38:42;1.38;;;1.27;;
12852;SDS011;6495;51.808;7.478;2023-07-29T12:41:10;1.30;;;1.20;;
12852;SDS011;6495;51.808;7.478;2023-07-29T12:43:38;1.60;;;1.50;;
12852;SDS011;6495;51.808;7.478;2023-07-29T12:46:07;1.77;;;1.50;;
12852;SDS011;6495;51.808;7.478;2023-07-29T12:48:35;1.60;;;1.23;;
12852;SDS011;6495;51.808;7.478;2023-07-29T12:51:03;1.30;;;1.20;;
12852;SDS011;6495;51.808;7.478;2023-07-29T12:53:32;1.45;;;1.27;;
12852;SDS011;6495;51.808;7.478;2023-07-29T12:56:00;1.95;;;1.80;;
12852;SDS011;6495;51.808;7.478;2023-07-29T12:58:29;2.65;;;1.55;;
12852;SDS011;6495;51.808;7.478;2023-07-29T13:00:57;2.65;;;1.60;;
12852;SDS011;6495;51.808;7.478;2023-07-29T13:03:25;2.20;;;1.70;;
12852;SDS011;6495;51.808;7.478;2023-07-29T13:05:54;1.67;;;1.58;;
12852;SDS011;6495;51.808;7.478;2023-07-29T13:08:22;2.88;;;1.85;;
12852;SDS011;6495;51.808;7.478;2023-07-29T13:10:51;7.82;;;2.00;;
12852;SDS011;6495;51.808;7.478;2023-07-29T13:13:20;1.63;;;1.52;;
12852;SDS011;6495;51.808;7.478;2023-07-29T13:15:48;2.55;;;1.52;;
12852;SDS011;6495;51.808;7.478;2023-07-29T13:18:16;1.75;;;1.65;;
12852;SDS011;6495;51.808;7.478;2023-07-29T13:20:44;4.85;;;1.80;;
12852;SDS011;6495;51.808;7.478;2023-07-29T13:23:12;2.33;;;2.08;;
12852;SDS011;6495;51.808;7.478;2023-07-29T13:25:40;2.97;;;2.10;;
12852;SDS011;6495;51.808;7.478;2023-07-29T13:28:09;2.17;;;1.98;;
12852;SDS011;6495;51.808;7.478;2023-07-29T13:30:39;2.58;;;1.75;;
12852;SDS011;6495;51.808;7.478;2023-07-29T13:33:08;3.10;;;1.63;;
12852;SDS011;6495;51.808;7.478;2023-07-29T13:35:36;1.80;;;1.70;;
12852;SDS011;6495;51.808;7.478;2023-07-29T13:38:05;3.20;;;1.75;;
12852;SDS011;6495;51.808;7.478;2023-07-29T13:40:34;1.80;;;1.70;;
12852;SDS011;6495;51.808;7.478;2023-07-29T13:43:04;2.38;;;1.80;;
12852;SDS011;6495;51.808;7.478;2023-07-29T13:45:34;3.05;;;2.00;;
12852;SDS011;6495;51.808;7.478;2023-07-29T13:48:03;1.90;;;1.70;;
12852;SDS011;6495;51.808;7.478;2023-07-29T13:50:32;1.90;;;1.75;;
12852;SDS011;6495;51.808;7.478;2023-07-29T13:53:00;1.80;;;1.70;;
12852;SDS011;6495;51.808;7.478;2023-07-29T13:55:28;2.00;;;1.70;;
12852;SDS011;6495;51.808;7.478;2023-07-29T13:57:56;2.00;;;1.63;;
12852;SDS011;6495;51.808;7.478;2023-07-29T14:00:24;2.25;;;1.85;;
12852;SDS011;6495;51.808;7.478;2023-07-29T14:02:54;1.80;;;1.70;;
12852;SDS011;6495;51.808;7.478;2023-07-29T14:05:22;2.00;;;1.85;;
12852;SDS011;6495;51.808;7.478;2023-07-29T14:07:51;2.03;;;1.83;;
12852;SDS011;6495;51.808;7.478;2023-07-29T14:10:19;2.20;;;2.00;;
12852;SDS011;6495;51.808;7.478;2023-07-29T14:12:47;2.17;;;1.98;;
12852;SDS011;6495;51.808;7.478;2023-07-29T14:15:15;2.90;;;2.13;;
12852;SDS011;6495;51.808;7.478;2023-07-29T14:17:44;2.95;;;1.40;;
12852;SDS011;6495;51.808;7.478;2023-07-29T14:20:14;2.65;;;1.08;;
12852;SDS011;6495;51.808;7.478;2023-07-29T14:22:43;0.70;;;0.70;;
12852;SDS011;6495;51.808;7.478;2023-07-29T14:25:17;2.35;;;0.75;;
12852;SDS011;6495;51.808;7.478;2023-07-29T14:27:52;1.15;;;0.80;;
12852;SDS011;6495;51.808;7.478;2023-07-29T14:30:20;3.47;;;0.98;;
12852;SDS011;6495;51.808;7.478;2023-07-29T14:32:48;0.82;;;0.70;;
12852;SDS011;6495;51.808;7.478;2023-07-29T14:35:18;1.45;;;0.95;;
12852;SDS011;6495;51.808;7.478;2023-07-29T14:37:47;0.75;;;0.75;;
12852;SDS011;6495;51.808;7.478;2023-07-29T14:40:15;2.80;;;0.88;;
12852;SDS011;6495;51.808;7.478;2023-07-29T14:42:44;2.30;;;0.88;;
12852;SDS011;6495;51.808;7.478;2023-07-29T14:45:12;1.45;;;0.70;;
12852;SDS011;6495;51.808;7.478;2023-07-29T14:47:41;0.93;;;0.70;;
12852;SDS011;6495;51.808;7.478;2023-07-29T14:50:09;1.25;;;0.80;;
12852;SDS011;6495;51.808;7.478;2023-07-29T14:52:39;0.60;;;0.60;;
12852;SDS011;6495;51.808;7.478;2023-07-29T14:55:12;0.95;;;0.65;;
12852;SDS011;6495;51.808;7.478;2023-07-29T14:57:40;0.70;;;0.70;;
12852;SDS011;6495;51.808;7.478;2023-07-29T15:00:10;1.05;;;0.73;;
12852;SDS011;6495;51.808;7.478;2023-07-29T15:02:40;0.80;;;0.80;;
12852;SDS011;6495;51.808;7.478;2023-07-29T15:05:08;1.92;;;1.13;;
12852;SDS011;6495;51.808;7.478;2023-07-29T15:07:36;1.40;;;0.85;;
12852;SDS011;6495;51.808;7.478;2023-07-29T15:10:06;1.85;;;0.85;;
12852;SDS011;6495;51.808;7.478;2023-07-29T15:12:35;2.25;;;0.90;;
12852;SDS011;6495;51.808;7.478;2023-07-29T15:15:04;1.10;;;0.80;;